Kendall J. Hebert — WDG7507 — position and weather

sailwx.info

Track history (hours):
 
Tides and Currents Weather Stations Pressure Air Temp Water Temp Dewpoint Dewpoint Depression Visibility Wind Speed Wind Dir Waves Ship Positions

Kendall J. Hebert

Owner: Gulf Coast Tugs, Inc., Larose, LA. More information available from US FCC via Universal Licensing System and Coast Guard Vessel Documentation Center.

Last reported at 2017-Dec-18 22:26 UTC. Time now 2017-Dec-18 22:45 UTC.
Position N 39°50' W 075°22'.

Length 24 m.

Type: Tug. MMSI: 367567990.

Date/timePositionNaut miles runAvg speedWind from/ knotsBaromVisibWave heightAir tempDewpointWater temp
2017-Dec-18 22:26N 39°50' W 075°22'0 0.1
2017-Dec-18 21:54N 39°50' W 075°22'0 0.1
2017-Dec-18 21:28N 39°50' W 075°22'0 0.0
2017-Dec-18 21:00N 39°50' W 075°22'0 0.0
2017-Dec-18 20:30N 39°50' W 075°22'0 0.0
2017-Dec-18 20:00N 39°50' W 075°22'0 0.0
2017-Dec-18 19:30N 39°50' W 075°22'0 0.0
2017-Dec-18 19:01N 39°50' W 075°22'0 0.0
2017-Dec-18 18:30N 39°50' W 075°22'0 0.0
2017-Dec-18 18:00N 39°50' W 075°22'0 0.0
2017-Dec-18 17:31N 39°50' W 075°22'0 0.1
2017-Dec-18 17:01N 39°50' W 075°22'1 3.0
2017-Dec-18 16:30N 39°51' W 075°20'0 0.1
2017-Dec-18 16:00N 39°51' W 075°20'0 0.0
2017-Dec-18 15:30N 39°51' W 075°20'0 0.2
2017-Dec-18 15:00N 39°51' W 075°20'0 0.3
2017-Dec-18 14:31N 39°51' W 075°20'0 0.0
2017-Dec-18 14:00N 39°51' W 075°20'0 0.0
2017-Dec-18 13:31N 39°51' W 075°20'0 0.0
2017-Dec-18 13:00N 39°51' W 075°20'0 0.1
2017-Dec-18 12:30N 39°51' W 075°20'0 0.0
2017-Dec-18 12:00N 39°51' W 075°20'0 0.0
2017-Dec-18 11:31N 39°51' W 075°20'0 0.0
2017-Dec-18 11:00N 39°51' W 075°20'0 0.1
2017-Dec-18 10:30N 39°51' W 075°20'0 0.1
2017-Dec-18 10:00N 39°51' W 075°20'0 0.0
2017-Dec-18 09:30N 39°51' W 075°20'0 0.3
2017-Dec-18 09:01N 39°51' W 075°20'0 0.0
2017-Dec-18 08:30N 39°51' W 075°20'0 0.1
2017-Dec-18 08:01N 39°51' W 075°20'0 0.0
2017-Dec-18 07:30N 39°51' W 075°20'0 0.0
2017-Dec-18 07:01N 39°51' W 075°20'0 0.0
2017-Dec-18 06:30N 39°51' W 075°20'0 0.0
2017-Dec-18 06:00N 39°51' W 075°20'0 0.0
2017-Dec-18 05:30N 39°51' W 075°20'0 0.0
2017-Dec-18 05:00N 39°51' W 075°20'0 0.0
2017-Dec-18 04:30N 39°51' W 075°20'0 0.1
2017-Dec-18 04:00N 39°51' W 075°20'0 0.0
2017-Dec-18 03:30N 39°51' W 075°20'0 0.0
2017-Dec-18 03:00N 39°51' W 075°20'0 0.0
2017-Dec-18 02:30N 39°51' W 075°20'0 0.0
2017-Dec-18 02:00N 39°51' W 075°20'0 0.0
2017-Dec-18 01:30N 39°51' W 075°20'0 0.0
2017-Dec-18 01:01N 39°51' W 075°20'0 0.0
2017-Dec-18 00:30N 39°51' W 075°20'0 0.0
2017-Dec-18 00:00N 39°51' W 075°20'0 0.0
2017-Dec-17 23:30N 39°51' W 075°20'0 0.0
2017-Dec-17 23:01N 39°51' W 075°20'0 0.0
2017-Dec-17 22:30N 39°51' W 075°20'0 0.1
2017-Dec-17 22:00N 39°51' W 075°20'0 0.1
2017-Dec-17 21:30N 39°51' W 075°20'0 0.0
2017-Dec-17 21:00N 39°51' W 075°20'0 0.1
2017-Dec-17 20:30N 39°51' W 075°20'0 0.0
2017-Dec-17 20:00N 39°51' W 075°20'0 0.1
2017-Dec-17 19:30N 39°51' W 075°20'0 0.5
2017-Dec-17 19:00N 39°51' W 075°20'0 0.0
2017-Dec-17 18:30N 39°51' W 075°20'0 0.0
2017-Dec-17 18:00N 39°51' W 075°20'0 0.0
2017-Dec-17 17:30N 39°51' W 075°20'0 0.3
2017-Dec-17 17:00N 39°51' W 075°20'0 0.1
2017-Dec-17 16:30N 39°51' W 075°20'0 0.1
2017-Dec-17 16:00N 39°51' W 075°20'0 0.3
2017-Dec-17 15:30N 39°51' W 075°20'0 0.0
2017-Dec-17 15:00N 39°51' W 075°20'1 1.2
2017-Dec-17 14:30N 39°51' W 075°21'2 4.3
2017-Dec-17 14:00N 39°50' W 075°23'0 0.0
2017-Dec-17 13:30N 39°50' W 075°23'0 0.0
2017-Dec-17 13:00N 39°50' W 075°23'2 3.9
2017-Dec-17 12:30N 39°48' W 075°25'2 3.4
2017-Dec-17 12:00N 39°47' W 075°27'0 0.0
2017-Dec-17 11:30N 39°47' W 075°27'0 0.0
2017-Dec-17 11:00N 39°47' W 075°27'1 1.4
2017-Dec-17 10:30N 39°48' W 075°26'2 5.0
2017-Dec-17 10:00N 39°49' W 075°23'3 6.0
2017-Dec-17 09:30N 39°51' W 075°20'0 0.8
2017-Dec-17 09:00N 39°51' W 075°20'3 5.8
2017-Dec-17 08:30N 39°49' W 075°23'3 5.9
2017-Dec-17 08:00N 39°48' W 075°26'2 3.4
2017-Dec-17 07:30N 39°47' W 075°28'0 0.0
2017-Dec-17 07:00N 39°47' W 075°28'0 0.0
2017-Dec-17 06:31N 39°47' W 075°28'0 0.1
2017-Dec-17 06:00N 39°47' W 075°28'0 0.2
2017-Dec-17 05:31N 39°47' W 075°28'0 0.0
2017-Dec-17 05:00N 39°47' W 075°28'0 0.0
2017-Dec-17 04:30N 39°47' W 075°27'0 0.0
2017-Dec-17 04:00N 39°47' W 075°28'0 0.0
2017-Dec-17 03:30N 39°47' W 075°28'1 1.6
2017-Dec-17 03:00N 39°47' W 075°27'0 0.2
2017-Dec-17 02:30N 39°47' W 075°27'1 1.8
2017-Dec-17 02:00N 39°47' W 075°28'3 5.8
2017-Dec-17 01:31N 39°44' W 075°30'5 9.5
2017-Dec-17 01:00N 39°40' W 075°32'4 8.6
2017-Dec-17 00:30N 39°36' W 075°34'4 8.9
2017-Dec-17 00:01N 39°32' W 075°33'4 8.7
2017-Dec-16 23:31N 39°27' W 075°33'4 8.6
2017-Dec-16 23:01N 39°24' W 075°30'4 7.8
2017-Dec-16 22:30N 39°21' W 075°26'4 7.6
2017-Dec-16 22:01N 39°18' W 075°23'4 7.3
2017-Dec-16 21:30N 39°16' W 075°20'4 7.1
2017-Dec-16 20:54N 39°12' W 075°17'101 5.2
2017-Dec-16 01:34N 40°35' W 074°02'1 9.1
2017-Dec-16 01:28N 40°36' W 074°03'4 8.0
2017-Dec-16 01:01N 40°39' W 074°05'2 0.3
2017-Dec-15 17:52N 40°39' W 074°07'0 0.0
2017-Dec-15 17:30N 40°39' W 074°07'0 0.0
2017-Dec-15 16:52N 40°39' W 074°07'0 0.0
2017-Dec-15 15:37N 40°39' W 074°07'0 0.1
2017-Dec-15 15:30N 40°39' W 074°07'0 0.0
2017-Dec-15 14:57N 40°39' W 074°07'0 0.0
2017-Dec-15 14:25N 40°39' W 074°07'0 0.0
2017-Dec-15 14:00N 40°39' W 074°07'0 0.0
2017-Dec-15 11:10N 40°39' W 074°07'0 0.0
2017-Dec-15 11:00N 40°39' W 074°07'0 0.0
2017-Dec-15 10:30N 40°39' W 074°07'0 0.0
2017-Dec-15 10:00N 40°39' W 074°07'0 0.0
2017-Dec-15 09:26N 40°39' W 074°07'0 0.0
2017-Dec-15 09:00N 40°39' W 074°07'0 0.0
2017-Dec-15 08:30N 40°39' W 074°07'0 0.0
2017-Dec-15 08:00N 40°39' W 074°07'0 0.0
2017-Dec-15 07:29N 40°39' W 074°07'0 0.0
2017-Dec-15 06:59N 40°39' W 074°07'0 0.0
2017-Dec-15 06:17N 40°39' W 074°07'0 0.0
2017-Dec-15 05:43N 40°39' W 074°07'0 0.1
2017-Dec-15 05:29N 40°39' W 074°07'0 0.0
2017-Dec-15 04:54N 40°39' W 074°07'0 0.0
2017-Dec-15 02:28N 40°39' W 074°07'0 0.0
2017-Dec-15 00:59N 40°39' W 074°07'0 0.0
2017-Dec-15 00:20N 40°39' W 074°07'0 0.0
2017-Dec-14 18:30N 40°39' W 074°07'0 0.0
2017-Dec-14 18:00N 40°39' W 074°07'0 0.0
2017-Dec-14 17:20N 40°39' W 074°07'0 0.0
2017-Dec-14 15:51N 40°39' W 074°07'0 0.0
2017-Dec-14 14:59N 40°39' W 074°07'0 0.0
2017-Dec-14 14:28N 40°39' W 074°07'0 0.0
2017-Dec-14 14:00N 40°39' W 074°07'0 0.1
2017-Dec-14 12:43N 40°39' W 074°07'0 0.0
2017-Dec-14 12:19N 40°38' W 074°07'0 0.0
2017-Dec-14 11:58N 40°39' W 074°07'0 0.0
2017-Dec-14 11:30N 40°39' W 074°07'0 0.0
2017-Dec-14 11:00N 40°38' W 074°07'0 0.0
2017-Dec-14 10:29N 40°39' W 074°07'0 0.0
2017-Dec-14 09:57N 40°39' W 074°07'0 0.0
2017-Dec-14 09:27N 40°38' W 074°07'0 0.0
2017-Dec-14 08:56N 40°39' W 074°07'0 0.0
2017-Dec-13 18:58N 40°38' W 074°07'2 3.2
2017-Dec-13 18:28N 40°38' W 074°09'0 0.6
2017-Dec-13 18:00N 40°38' W 074°10'0 0.0
2017-Dec-13 17:30N 40°38' W 074°10'0 0.0
2017-Dec-13 16:59N 40°38' W 074°10'0 0.1
2017-Dec-13 16:30N 40°38' W 074°10'0 0.0
2017-Dec-13 16:00N 40°38' W 074°10'0 0.0
2017-Dec-13 15:30N 40°38' W 074°10'0 0.0
2017-Dec-13 14:59N 40°38' W 074°10'0 0.0
2017-Dec-13 14:30N 40°38' W 074°10'0 0.0
2017-Dec-13 14:00N 40°38' W 074°10'0 0.0
2017-Dec-13 13:30N 40°38' W 074°10'0 0.0
2017-Dec-13 12:52N 40°38' W 074°10'0 0.0
2017-Dec-13 12:30N 40°38' W 074°10'0 0.0
2017-Dec-13 11:59N 40°38' W 074°10'0 0.0
2017-Dec-13 11:30N 40°38' W 074°10'0 0.0
2017-Dec-13 10:59N 40°38' W 074°10'0 0.0
2017-Dec-13 10:29N 40°38' W 074°10'0 0.0
2017-Dec-13 10:00N 40°38' W 074°10'0 0.0
2017-Dec-13 08:06N 40°38' W 074°10'0 0.0
2017-Dec-13 08:00N 40°38' W 074°10'0 0.0
2017-Dec-13 07:19N 40°38' W 074°10'0 0.0
2017-Dec-13 06:57N 40°38' W 074°10'0 0.0
2017-Dec-13 06:29N 40°38' W 074°10'0 0.0
2017-Dec-13 05:57N 40°38' W 074°10'0 0.0
2017-Dec-13 05:30N 40°38' W 074°10'0 0.3
2017-Dec-13 04:29N 40°39' W 074°10'0 0.0
2017-Dec-13 03:59N 40°39' W 074°10'0 0.0
2017-Dec-13 03:26N 40°39' W 074°10'0 0.0
2017-Dec-13 02:59N 40°39' W 074°10'0 0.0
2017-Dec-13 01:03N 40°39' W 074°10'0 0.0
2017-Dec-13 01:00N 40°39' W 074°10'0 0.6
2017-Dec-13 00:30N 40°38' W 074°10'0 0.0
2017-Dec-12 23:58N 40°38' W 074°10'0 0.0
2017-Dec-12 23:30N 40°38' W 074°10'0 0.0
2017-Dec-12 23:00N 40°38' W 074°10'0 0.0
2017-Dec-12 22:27N 40°38' W 074°10'0 0.0
2017-Dec-12 22:00N 40°38' W 074°10'0 0.0
2017-Dec-12 21:29N 40°38' W 074°10'0 0.0
2017-Dec-12 20:56N 40°38' W 074°10'0 0.0
2017-Dec-12 20:27N 40°38' W 074°10'0 0.0
2017-Dec-12 19:56N 40°38' W 074°10'0 0.0
2017-Dec-12 19:17N 40°38' W 074°10'0 0.2
2017-Dec-12 18:59N 40°38' W 074°10'2 3.8
2017-Dec-12 18:29N 40°39' W 074°07'4 8.5
2017-Dec-12 18:00N 40°40' W 074°02'4 7.1
2017-Dec-12 17:30N 40°43' W 073°59'5 7.0
2017-Dec-12 16:49N 40°47' W 073°56'2 7.2
2017-Dec-12 16:29N 40°48' W 073°53'60 8.3
2017-Dec-12 09:13N 41°08' W 072°38'3 9.6
2017-Dec-12 08:56N 41°09' W 072°34'510.3
2017-Dec-12 08:26N 41°09' W 072°27'510.4
2017-Dec-12 07:56N 41°11' W 072°21'96 5.2
2017-Dec-11 13:13N 42°19' W 070°49'0 0.5
2017-Dec-11 12:36N 42°19' W 070°49'0 1.8
2017-Dec-11 12:30N 42°19' W 070°49'  
2017-Dec-09 02:48N 41°14' W 072°10'8 6.2
2017-Dec-09 01:34N 41°11' W 072°20'1 7.1
2017-Dec-09 01:28N 41°11' W 072°20'3 7.0
2017-Dec-09 01:00N 41°10' W 072°24'4 6.9
2017-Dec-09 00:29N 41°09' W 072°29'3 6.6
2017-Dec-09 00:00N 41°09' W 072°33'4 6.6
2017-Dec-08 23:28N 41°09' W 072°38'3 6.3
2017-Dec-08 22:58N 41°09' W 072°42'  
Track history (hours):
 
Tides and Currents Weather Stations Pressure Air Temp Water Temp Dewpoint Dewpoint Depression Visibility Wind Speed Wind Dir Waves Ship Positions

Kendall J. Hebert

Owner: Gulf Coast Tugs, Inc., Larose, LA. More information available from US FCC via Universal Licensing System and Coast Guard Vessel Documentation Center.

Last reported at 2017-Dec-18 22:26 UTC. Time now 2017-Dec-18 22:45 UTC.
Position N 39°50' W 075°22'.

Length 24 m.

Type: Tug. MMSI: 367567990.

Date/timePositionNaut miles runAvg speedWind from/ knotsBaromVisibWave heightAir tempDewpointWater temp
2017-Dec-18 22:26N 39°50' W 075°22'0 0.1
2017-Dec-18 21:54N 39°50' W 075°22'0 0.1
2017-Dec-18 21:28N 39°50' W 075°22'0 0.0
2017-Dec-18 21:00N 39°50' W 075°22'0 0.0
2017-Dec-18 20:30N 39°50' W 075°22'0 0.0
2017-Dec-18 20:00N 39°50' W 075°22'0 0.0
2017-Dec-18 19:30N 39°50' W 075°22'0 0.0
2017-Dec-18 19:01N 39°50' W 075°22'0 0.0
2017-Dec-18 18:30N 39°50' W 075°22'0 0.0
2017-Dec-18 18:00N 39°50' W 075°22'0 0.0
2017-Dec-18 17:31N 39°50' W 075°22'0 0.1
2017-Dec-18 17:01N 39°50' W 075°22'1 3.0
2017-Dec-18 16:30N 39°51' W 075°20'0 0.1
2017-Dec-18 16:00N 39°51' W 075°20'0 0.0
2017-Dec-18 15:30N 39°51' W 075°20'0 0.2
2017-Dec-18 15:00N 39°51' W 075°20'0 0.3
2017-Dec-18 14:31N 39°51' W 075°20'0 0.0
2017-Dec-18 14:00N 39°51' W 075°20'0 0.0
2017-Dec-18 13:31N 39°51' W 075°20'0 0.0
2017-Dec-18 13:00N 39°51' W 075°20'0 0.1
2017-Dec-18 12:30N 39°51' W 075°20'0 0.0
2017-Dec-18 12:00N 39°51' W 075°20'0 0.0
2017-Dec-18 11:31N 39°51' W 075°20'0 0.0
2017-Dec-18 11:00N 39°51' W 075°20'0 0.1
2017-Dec-18 10:30N 39°51' W 075°20'0 0.1
2017-Dec-18 10:00N 39°51' W 075°20'0 0.0
2017-Dec-18 09:30N 39°51' W 075°20'0 0.3
2017-Dec-18 09:01N 39°51' W 075°20'0 0.0
2017-Dec-18 08:30N 39°51' W 075°20'0 0.1
2017-Dec-18 08:01N 39°51' W 075°20'0 0.0
2017-Dec-18 07:30N 39°51' W 075°20'0 0.0
2017-Dec-18 07:01N 39°51' W 075°20'0 0.0
2017-Dec-18 06:30N 39°51' W 075°20'0 0.0
2017-Dec-18 06:00N 39°51' W 075°20'0 0.0
2017-Dec-18 05:30N 39°51' W 075°20'0 0.0
2017-Dec-18 05:00N 39°51' W 075°20'0 0.0
2017-Dec-18 04:30N 39°51' W 075°20'0 0.1
2017-Dec-18 04:00N 39°51' W 075°20'0 0.0
2017-Dec-18 03:30N 39°51' W 075°20'0 0.0
2017-Dec-18 03:00N 39°51' W 075°20'0 0.0
2017-Dec-18 02:30N 39°51' W 075°20'0 0.0
2017-Dec-18 02:00N 39°51' W 075°20'0 0.0
2017-Dec-18 01:30N 39°51' W 075°20'0 0.0
2017-Dec-18 01:01N 39°51' W 075°20'0 0.0
2017-Dec-18 00:30N 39°51' W 075°20'0 0.0
2017-Dec-18 00:00N 39°51' W 075°20'0 0.0
2017-Dec-17 23:30N 39°51' W 075°20'0 0.0
2017-Dec-17 23:01N 39°51' W 075°20'0 0.0
2017-Dec-17 22:30N 39°51' W 075°20'0 0.1
2017-Dec-17 22:00N 39°51' W 075°20'0 0.1
2017-Dec-17 21:30N 39°51' W 075°20'0 0.0
2017-Dec-17 21:00N 39°51' W 075°20'0 0.1
2017-Dec-17 20:30N 39°51' W 075°20'0 0.0
2017-Dec-17 20:00N 39°51' W 075°20'0 0.1
2017-Dec-17 19:30N 39°51' W 075°20'0 0.5
2017-Dec-17 19:00N 39°51' W 075°20'0 0.0
2017-Dec-17 18:30N 39°51' W 075°20'0 0.0
2017-Dec-17 18:00N 39°51' W 075°20'0 0.0
2017-Dec-17 17:30N 39°51' W 075°20'0 0.3
2017-Dec-17 17:00N 39°51' W 075°20'0 0.1
2017-Dec-17 16:30N 39°51' W 075°20'0 0.1
2017-Dec-17 16:00N 39°51' W 075°20'0 0.3
2017-Dec-17 15:30N 39°51' W 075°20'0 0.0
2017-Dec-17 15:00N 39°51' W 075°20'1 1.2
2017-Dec-17 14:30N 39°51' W 075°21'2 4.3
2017-Dec-17 14:00N 39°50' W 075°23'0 0.0
2017-Dec-17 13:30N 39°50' W 075°23'0 0.0
2017-Dec-17 13:00N 39°50' W 075°23'2 3.9
2017-Dec-17 12:30N 39°48' W 075°25'2 3.4
2017-Dec-17 12:00N 39°47' W 075°27'0 0.0
2017-Dec-17 11:30N 39°47' W 075°27'0 0.0
2017-Dec-17 11:00N 39°47' W 075°27'1 1.4
2017-Dec-17 10:30N 39°48' W 075°26'2 5.0
2017-Dec-17 10:00N 39°49' W 075°23'3 6.0
2017-Dec-17 09:30N 39°51' W 075°20'0 0.8
2017-Dec-17 09:00N 39°51' W 075°20'3 5.8
2017-Dec-17 08:30N 39°49' W 075°23'3 5.9
2017-Dec-17 08:00N 39°48' W 075°26'2 3.4
2017-Dec-17 07:30N 39°47' W 075°28'0 0.0
2017-Dec-17 07:00N 39°47' W 075°28'0 0.0
2017-Dec-17 06:31N 39°47' W 075°28'0 0.1
2017-Dec-17 06:00N 39°47' W 075°28'0 0.2
2017-Dec-17 05:31N 39°47' W 075°28'0 0.0
2017-Dec-17 05:00N 39°47' W 075°28'0 0.0
2017-Dec-17 04:30N 39°47' W 075°27'0 0.0
2017-Dec-17 04:00N 39°47' W 075°28'0 0.0
2017-Dec-17 03:30N 39°47' W 075°28'1 1.6
2017-Dec-17 03:00N 39°47' W 075°27'0 0.2
2017-Dec-17 02:30N 39°47' W 075°27'1 1.8
2017-Dec-17 02:00N 39°47' W 075°28'3 5.8
2017-Dec-17 01:31N 39°44' W 075°30'5 9.5
2017-Dec-17 01:00N 39°40' W 075°32'4 8.6
2017-Dec-17 00:30N 39°36' W 075°34'4 8.9
2017-Dec-17 00:01N 39°32' W 075°33'4 8.7
2017-Dec-16 23:31N 39°27' W 075°33'4 8.6
2017-Dec-16 23:01N 39°24' W 075°30'4 7.8
2017-Dec-16 22:30N 39°21' W 075°26'4 7.6
2017-Dec-16 22:01N 39°18' W 075°23'4 7.3
2017-Dec-16 21:30N 39°16' W 075°20'4 7.1
2017-Dec-16 20:54N 39°12' W 075°17'101 5.2
2017-Dec-16 01:34N 40°35' W 074°02'1 9.1
2017-Dec-16 01:28N 40°36' W 074°03'4 8.0
2017-Dec-16 01:01N 40°39' W 074°05'2 0.3
2017-Dec-15 17:52N 40°39' W 074°07'0 0.0
2017-Dec-15 17:30N 40°39' W 074°07'0 0.0
2017-Dec-15 16:52N 40°39' W 074°07'0 0.0
2017-Dec-15 15:37N 40°39' W 074°07'0 0.1
2017-Dec-15 15:30N 40°39' W 074°07'0 0.0
2017-Dec-15 14:57N 40°39' W 074°07'0 0.0
2017-Dec-15 14:25N 40°39' W 074°07'0 0.0
2017-Dec-15 14:00N 40°39' W 074°07'0 0.0
2017-Dec-15 11:10N 40°39' W 074°07'0 0.0
2017-Dec-15 11:00N 40°39' W 074°07'0 0.0
2017-Dec-15 10:30N 40°39' W 074°07'0 0.0
2017-Dec-15 10:00N 40°39' W 074°07'0 0.0
2017-Dec-15 09:26N 40°39' W 074°07'0 0.0
2017-Dec-15 09:00N 40°39' W 074°07'0 0.0
2017-Dec-15 08:30N 40°39' W 074°07'0 0.0
2017-Dec-15 08:00N 40°39' W 074°07'0 0.0
2017-Dec-15 07:29N 40°39' W 074°07'0 0.0
2017-Dec-15 06:59N 40°39' W 074°07'0 0.0
2017-Dec-15 06:17N 40°39' W 074°07'0 0.0
2017-Dec-15 05:43N 40°39' W 074°07'0 0.1
2017-Dec-15 05:29N 40°39' W 074°07'0 0.0
2017-Dec-15 04:54N 40°39' W 074°07'0 0.0
2017-Dec-15 02:28N 40°39' W 074°07'0 0.0
2017-Dec-15 00:59N 40°39' W 074°07'0 0.0
2017-Dec-15 00:20N 40°39' W 074°07'0 0.0
2017-Dec-14 18:30N 40°39' W 074°07'0 0.0
2017-Dec-14 18:00N 40°39' W 074°07'0 0.0
2017-Dec-14 17:20N 40°39' W 074°07'0 0.0
2017-Dec-14 15:51N 40°39' W 074°07'0 0.0
2017-Dec-14 14:59N 40°39' W 074°07'0 0.0
2017-Dec-14 14:28N 40°39' W 074°07'0 0.0
2017-Dec-14 14:00N 40°39' W 074°07'0 0.1
2017-Dec-14 12:43N 40°39' W 074°07'0 0.0
2017-Dec-14 12:19N 40°38' W 074°07'0 0.0
2017-Dec-14 11:58N 40°39' W 074°07'0 0.0
2017-Dec-14 11:30N 40°39' W 074°07'0 0.0
2017-Dec-14 11:00N 40°38' W 074°07'0 0.0
2017-Dec-14 10:29N 40°39' W 074°07'0 0.0
2017-Dec-14 09:57N 40°39' W 074°07'0 0.0
2017-Dec-14 09:27N 40°38' W 074°07'0 0.0
2017-Dec-14 08:56N 40°39' W 074°07'0 0.0
2017-Dec-13 18:58N 40°38' W 074°07'2 3.2
2017-Dec-13 18:28N 40°38' W 074°09'0 0.6
2017-Dec-13 18:00N 40°38' W 074°10'0 0.0
2017-Dec-13 17:30N 40°38' W 074°10'0 0.0
2017-Dec-13 16:59N 40°38' W 074°10'0 0.1
2017-Dec-13 16:30N 40°38' W 074°10'0 0.0
2017-Dec-13 16:00N 40°38' W 074°10'0 0.0
2017-Dec-13 15:30N 40°38' W 074°10'0 0.0
2017-Dec-13 14:59N 40°38' W 074°10'0 0.0
2017-Dec-13 14:30N 40°38' W 074°10'0 0.0
2017-Dec-13 14:00N 40°38' W 074°10'0 0.0
2017-Dec-13 13:30N 40°38' W 074°10'0 0.0
2017-Dec-13 12:52N 40°38' W 074°10'0 0.0
2017-Dec-13 12:30N 40°38' W 074°10'0 0.0
2017-Dec-13 11:59N 40°38' W 074°10'0 0.0
2017-Dec-13 11:30N 40°38' W 074°10'0 0.0
2017-Dec-13 10:59N 40°38' W 074°10'0 0.0
2017-Dec-13 10:29N 40°38' W 074°10'0 0.0
2017-Dec-13 10:00N 40°38' W 074°10'0 0.0
2017-Dec-13 08:06N 40°38' W 074°10'0 0.0
2017-Dec-13 08:00N 40°38' W 074°10'0 0.0
2017-Dec-13 07:19N 40°38' W 074°10'0 0.0
2017-Dec-13 06:57N 40°38' W 074°10'0 0.0
2017-Dec-13 06:29N 40°38' W 074°10'0 0.0
2017-Dec-13 05:57N 40°38' W 074°10'0 0.0
2017-Dec-13 05:30N 40°38' W 074°10'0 0.3
2017-Dec-13 04:29N 40°39' W 074°10'0 0.0
2017-Dec-13 03:59N 40°39' W 074°10'0 0.0
2017-Dec-13 03:26N 40°39' W 074°10'0 0.0
2017-Dec-13 02:59N 40°39' W 074°10'0 0.0
2017-Dec-13 01:03N 40°39' W 074°10'0 0.0
2017-Dec-13 01:00N 40°39' W 074°10'0 0.6
2017-Dec-13 00:30N 40°38' W 074°10'0 0.0
2017-Dec-12 23:58N 40°38' W 074°10'0 0.0
2017-Dec-12 23:30N 40°38' W 074°10'0 0.0
2017-Dec-12 23:00N 40°38' W 074°10'0 0.0
2017-Dec-12 22:27N 40°38' W 074°10'0 0.0
2017-Dec-12 22:00N 40°38' W 074°10'0 0.0
2017-Dec-12 21:29N 40°38' W 074°10'0 0.0
2017-Dec-12 20:56N 40°38' W 074°10'0 0.0
2017-Dec-12 20:27N 40°38' W 074°10'0 0.0
2017-Dec-12 19:56N 40°38' W 074°10'0 0.0
2017-Dec-12 19:17N 40°38' W 074°10'0 0.2
2017-Dec-12 18:59N 40°38' W 074°10'2 3.8
2017-Dec-12 18:29N 40°39' W 074°07'4 8.5
2017-Dec-12 18:00N 40°40' W 074°02'4 7.1
2017-Dec-12 17:30N 40°43' W 073°59'5 7.0
2017-Dec-12 16:49N 40°47' W 073°56'2 7.2
2017-Dec-12 16:29N 40°48' W 073°53'60 8.3
2017-Dec-12 09:13N 41°08' W 072°38'3 9.6
2017-Dec-12 08:56N 41°09' W 072°34'510.3
2017-Dec-12 08:26N 41°09' W 072°27'510.4
2017-Dec-12 07:56N 41°11' W 072°21'96 5.2
2017-Dec-11 13:13N 42°19' W 070°49'0 0.5
2017-Dec-11 12:36N 42°19' W 070°49'0 1.8
2017-Dec-11 12:30N 42°19' W 070°49'  
2017-Dec-09 02:48N 41°14' W 072°10'8 6.2
2017-Dec-09 01:34N 41°11' W 072°20'1 7.1
2017-Dec-09 01:28N 41°11' W 072°20'3 7.0
2017-Dec-09 01:00N 41°10' W 072°24'4 6.9
2017-Dec-09 00:29N 41°09' W 072°29'3 6.6
2017-Dec-09 00:00N 41°09' W 072°33'4 6.6
2017-Dec-08 23:28N 41°09' W 072°38'3 6.3
2017-Dec-08 22:58N 41°09' W 072°42'  

Dump ship's entire track history